Huvudsida
METAR-TAF:

METAR-TAF

Flygplatser :

Sankt Michels flygplats

Sankt Michel, Finland

latitud: 61-44N, longitud: 027-18E, höjd: 138 m

Aktuellt väderrapport

Denna rapport gjordes för 21 minuter sedan, klockan 04:50 UTC
Vind 9 kt från väst
Temperatur 6°C
Fuktighet 87%
Tryck 1029 hPa
Sikt 10 km eller mer
Brutna moln på en höjd av 1300 ft

METAR: EFMI 170450Z AUTO 26009KT 9999 BKN013 06/04 Q1029

Tid: 07:11 (05:11 UTC)


TAF: saknas

Aktuella väderrapporter och prognoser från 4000 flygplatser (METAR- och TAF-rapporter).

De tillgängliga stationerna syns som gula och röda prickar på kartan.

För musen över prickarna för att se namnen på stationerna.

Klicka sedan för att få väderrapporter och prognoser.

För att ändra kartan: Klicka på de gröna knapparna med ett svart kors på för att zooma in; den gröna knappen med ett streck på för att zooma ut; eller på de gröna pilarna för angränsande kartor.


METAR-TAF: